sensor_id;sensor_type;location;lat;lon;timestamp;pressure;altitude;pressure_sealevel;temperature
71807;BMP280;59655;42.590;23.364;2022-09-24T00:00:56;91815.59;;;7.58
71807;BMP280;59655;42.590;23.364;2022-09-24T00:03:23;91818.75;;;7.57
71807;BMP280;59655;42.590;23.364;2022-09-24T00:05:51;91812.16;;;7.63
71807;BMP280;59655;42.590;23.364;2022-09-24T00:08:18;91818.47;;;7.73
71807;BMP280;59655;42.590;23.364;2022-09-24T00:10:45;91813.72;;;7.72
71807;BMP280;59655;42.590;23.364;2022-09-24T00:13:13;91817.78;;;7.73
71807;BMP280;59655;42.590;23.364;2022-09-24T00:15:43;91810.34;;;7.71
71807;BMP280;59655;42.590;23.364;2022-09-24T00:18:09;91812.97;;;7.71
71807;BMP280;59655;42.590;23.364;2022-09-24T00:20:36;91823.66;;;7.79
71807;BMP280;59655;42.590;23.364;2022-09-24T00:23:02;91812.09;;;7.82
71807;BMP280;59655;42.590;23.364;2022-09-24T00:25:28;91807.53;;;7.83
71807;BMP280;59655;42.590;23.364;2022-09-24T00:28:12;91807.22;;;7.86
71807;BMP280;59655;42.590;23.364;2022-09-24T00:30:39;91816.22;;;7.78
71807;BMP280;59655;42.590;23.364;2022-09-24T00:33:05;91810.94;;;7.78
71807;BMP280;59655;42.590;23.364;2022-09-24T00:35:31;91804.19;;;7.82
71807;BMP280;59655;42.590;23.364;2022-09-24T00:37:57;91800.09;;;7.81
71807;BMP280;59655;42.590;23.364;2022-09-24T00:40:30;91797.34;;;7.87
71807;BMP280;59655;42.590;23.364;2022-09-24T00:42:56;91799.28;;;7.86
71807;BMP280;59655;42.590;23.364;2022-09-24T00:45:22;91801.31;;;7.80
71807;BMP280;59655;42.590;23.364;2022-09-24T00:47:49;91798.44;;;7.65
71807;BMP280;59655;42.590;23.364;2022-09-24T00:50:19;91794.06;;;7.67
71807;BMP280;59655;42.590;23.364;2022-09-24T00:52:49;91793.69;;;7.77
71807;BMP280;59655;42.590;23.364;2022-09-24T00:55:16;91791.47;;;7.81
71807;BMP280;59655;42.590;23.364;2022-09-24T00:57:44;91793.59;;;7.82
71807;BMP280;59655;42.590;23.364;2022-09-24T01:00:11;91789.75;;;7.83
71807;BMP280;59655;42.590;23.364;2022-09-24T01:02:38;91790.06;;;7.80
71807;BMP280;59655;42.590;23.364;2022-09-24T01:05:05;91793.38;;;7.67
71807;BMP280;59655;42.590;23.364;2022-09-24T01:07:31;91788.91;;;7.62
71807;BMP280;59655;42.590;23.364;2022-09-24T01:09:56;91786.66;;;7.66
71807;BMP280;59655;42.590;23.364;2022-09-24T01:12:45;91782.09;;;7.66
71807;BMP280;59655;42.590;23.364;2022-09-24T01:15:26;91777.91;;;7.58
71807;BMP280;59655;42.590;23.364;2022-09-24T01:18:33;91790.63;;;7.59
71807;BMP280;59655;42.590;23.364;2022-09-24T01:21:22;91781.78;;;7.57
71807;BMP280;59655;42.590;23.364;2022-09-24T01:32:00;91782.66;;;7.46
71807;BMP280;59655;42.590;23.364;2022-09-24T01:34:39;91769.44;;;7.32
71807;BMP280;59655;42.590;23.364;2022-09-24T01:37:05;91784.22;;;7.22
71807;BMP280;59655;42.590;23.364;2022-09-24T01:39:32;91781.81;;;7.24
71807;BMP280;59655;42.590;23.364;2022-09-24T01:41:58;91778.31;;;7.29
71807;BMP280;59655;42.590;23.364;2022-09-24T01:44:24;91786.22;;;7.16
71807;BMP280;59655;42.590;23.364;2022-09-24T01:46:53;91788.75;;;7.08
71807;BMP280;59655;42.590;23.364;2022-09-24T01:49:19;91784.75;;;7.02
71807;BMP280;59655;42.590;23.364;2022-09-24T01:51:49;91785.47;;;7.02
71807;BMP280;59655;42.590;23.364;2022-09-24T01:54:25;91786.13;;;6.89
71807;BMP280;59655;42.590;23.364;2022-09-24T01:56:57;91790.19;;;6.90
71807;BMP280;59655;42.590;23.364;2022-09-24T02:02:02;91793.81;;;6.87
71807;BMP280;59655;42.590;23.364;2022-09-24T02:04:30;91780.91;;;6.84
71807;BMP280;59655;42.590;23.364;2022-09-24T02:07:04;91784.31;;;6.79
71807;BMP280;59655;42.590;23.364;2022-09-24T02:12:03;91792.09;;;6.90
71807;BMP280;59655;42.590;23.364;2022-09-24T02:14:31;91795.28;;;6.83
71807;BMP280;59655;42.590;23.364;2022-09-24T02:16:59;91796.72;;;6.84
71807;BMP280;59655;42.590;23.364;2022-09-24T02:19:27;91809.22;;;6.83
71807;BMP280;59655;42.590;23.364;2022-09-24T02:21:53;91801.56;;;6.80
71807;BMP280;59655;42.590;23.364;2022-09-24T02:24:46;91811.38;;;6.79
71807;BMP280;59655;42.590;23.364;2022-09-24T02:27:14;91802.91;;;6.67
71807;BMP280;59655;42.590;23.364;2022-09-24T02:29:39;91810.97;;;6.75
71807;BMP280;59655;42.590;23.364;2022-09-24T02:32:07;91811.56;;;6.68
71807;BMP280;59655;42.590;23.364;2022-09-24T02:34:41;91813.19;;;6.71
71807;BMP280;59655;42.590;23.364;2022-09-24T02:37:12;91816.09;;;6.67
71807;BMP280;59655;42.590;23.364;2022-09-24T02:39:38;91810.31;;;6.69
71807;BMP280;59655;42.590;23.364;2022-09-24T02:42:04;91812.03;;;6.66
71807;BMP280;59655;42.590;23.364;2022-09-24T02:44:31;91821.44;;;6.62
71807;BMP280;59655;42.590;23.364;2022-09-24T02:46:57;91826.72;;;6.62
71807;BMP280;59655;42.590;23.364;2022-09-24T02:49:22;91814.03;;;6.60
71807;BMP280;59655;42.590;23.364;2022-09-24T02:51:47;91818.81;;;6.62
71807;BMP280;59655;42.590;23.364;2022-09-24T02:54:13;91825.22;;;6.47
71807;BMP280;59655;42.590;23.364;2022-09-24T02:56:38;91829.50;;;6.51
71807;BMP280;59655;42.590;23.364;2022-09-24T02:59:04;91825.63;;;6.52
71807;BMP280;59655;42.590;23.364;2022-09-24T03:01:31;91825.91;;;6.48
71807;BMP280;59655;42.590;23.364;2022-09-24T03:03:56;91826.41;;;6.46
71807;BMP280;59655;42.590;23.364;2022-09-24T03:06:22;91833.88;;;6.42
71807;BMP280;59655;42.590;23.364;2022-09-24T03:08:49;91829.19;;;6.35
71807;BMP280;59655;42.590;23.364;2022-09-24T03:11:16;91826.97;;;6.39
71807;BMP280;59655;42.590;23.364;2022-09-24T03:13:41;91826.53;;;6.35
71807;BMP280;59655;42.590;23.364;2022-09-24T03:16:07;91826.16;;;6.25
71807;BMP280;59655;42.590;23.364;2022-09-24T03:18:33;91823.28;;;6.23
71807;BMP280;59655;42.590;23.364;2022-09-24T03:21:10;91826.63;;;6.24
71807;BMP280;59655;42.590;23.364;2022-09-24T03:23:36;91820.44;;;6.21
71807;BMP280;59655;42.590;23.364;2022-09-24T03:26:02;91812.25;;;6.25
71807;BMP280;59655;42.590;23.364;2022-09-24T03:28:28;91826.75;;;6.13
71807;BMP280;59655;42.590;23.364;2022-09-24T03:30:54;91827.66;;;6.15
71807;BMP280;59655;42.590;23.364;2022-09-24T03:36:07;91827.44;;;6.13
71807;BMP280;59655;42.590;23.364;2022-09-24T03:38:34;91829.38;;;6.13
71807;BMP280;59655;42.590;23.364;2022-09-24T03:41:00;91832.47;;;6.17
71807;BMP280;59655;42.590;23.364;2022-09-24T03:43:25;91831.31;;;6.12
71807;BMP280;59655;42.590;23.364;2022-09-24T03:45:51;91835.09;;;6.17
71807;BMP280;59655;42.590;23.364;2022-09-24T03:48:18;91834.03;;;6.01
71807;BMP280;59655;42.590;23.364;2022-09-24T03:50:44;91829.94;;;6.05
71807;BMP280;59655;42.590;23.364;2022-09-24T03:53:11;91838.69;;;6.14
71807;BMP280;59655;42.590;23.364;2022-09-24T03:56:02;91838.94;;;6.16
71807;BMP280;59655;42.590;23.364;2022-09-24T03:58:28;91841.06;;;6.17
71807;BMP280;59655;42.590;23.364;2022-09-24T04:00:55;91844.47;;;6.12
71807;BMP280;59655;42.590;23.364;2022-09-24T04:03:22;91836.88;;;6.09
71807;BMP280;59655;42.590;23.364;2022-09-24T04:05:48;91842.16;;;6.03
71807;BMP280;59655;42.590;23.364;2022-09-24T04:08:18;91841.91;;;6.06
71807;BMP280;59655;42.590;23.364;2022-09-24T04:10:44;91835.91;;;6.06
71807;BMP280;59655;42.590;23.364;2022-09-24T04:13:11;91836.94;;;5.97
71807;BMP280;59655;42.590;23.364;2022-09-24T04:15:36;91846.03;;;5.96
71807;BMP280;59655;42.590;23.364;2022-09-24T04:18:02;91842.97;;;5.92
71807;BMP280;59655;42.590;23.364;2022-09-24T04:20:28;91844.41;;;5.93
71807;BMP280;59655;42.590;23.364;2022-09-24T04:22:55;91839.63;;;5.92
71807;BMP280;59655;42.590;23.364;2022-09-24T04:25:22;91850.38;;;5.94
71807;BMP280;59655;42.590;23.364;2022-09-24T04:27:58;91848.47;;;5.94
71807;BMP280;59655;42.590;23.364;2022-09-24T04:30:25;91844.56;;;6.01
71807;BMP280;59655;42.590;23.364;2022-09-24T04:32:50;91849.16;;;5.95
71807;BMP280;59655;42.590;23.364;2022-09-24T04:35:17;91850.06;;;6.03
71807;BMP280;59655;42.590;23.364;2022-09-24T04:37:43;91858.44;;;6.01
71807;BMP280;59655;42.590;23.364;2022-09-24T04:40:09;91856.03;;;6.03
71807;BMP280;59655;42.590;23.364;2022-09-24T04:42:37;91857.41;;;6.10
71807;BMP280;59655;42.590;23.364;2022-09-24T04:45:05;91859.94;;;5.97
71807;BMP280;59655;42.590;23.364;2022-09-24T04:47:30;91865.88;;;6.03
71807;BMP280;59655;42.590;23.364;2022-09-24T04:49:55;91864.31;;;6.13
71807;BMP280;59655;42.590;23.364;2022-09-24T04:52:21;91862.88;;;6.18
71807;BMP280;59655;42.590;23.364;2022-09-24T04:54:54;91860.94;;;6.18
71807;BMP280;59655;42.590;23.364;2022-09-24T04:57:20;91848.97;;;6.17
71807;BMP280;59655;42.590;23.364;2022-09-24T04:59:47;91855.19;;;6.20
71807;BMP280;59655;42.590;23.364;2022-09-24T05:02:12;91856.75;;;6.28
71807;BMP280;59655;42.590;23.364;2022-09-24T05:04:38;91856.50;;;6.32
71807;BMP280;59655;42.590;23.364;2022-09-24T05:07:03;91858.91;;;6.30
71807;BMP280;59655;42.590;23.364;2022-09-24T05:09:29;91859.34;;;6.34
71807;BMP280;59655;42.590;23.364;2022-09-24T05:11:56;91863.22;;;6.33
71807;BMP280;59655;42.590;23.364;2022-09-24T05:14:22;91856.38;;;6.43
71807;BMP280;59655;42.590;23.364;2022-09-24T05:16:47;91856.75;;;6.53
71807;BMP280;59655;42.590;23.364;2022-09-24T05:19:12;91861.28;;;6.58
71807;BMP280;59655;42.590;23.364;2022-09-24T05:21:38;91864.84;;;6.61
71807;BMP280;59655;42.590;23.364;2022-09-24T05:24:03;91863.63;;;6.62
71807;BMP280;59655;42.590;23.364;2022-09-24T05:26:29;91869.81;;;6.64
71807;BMP280;59655;42.590;23.364;2022-09-24T05:29:13;91869.56;;;6.68
71807;BMP280;59655;42.590;23.364;2022-09-24T05:31:38;91870.00;;;6.72
71807;BMP280;59655;42.590;23.364;2022-09-24T05:34:03;91869.19;;;6.77
71807;BMP280;59655;42.590;23.364;2022-09-24T05:36:29;91876.06;;;6.86
71807;BMP280;59655;42.590;23.364;2022-09-24T05:38:55;91876.50;;;6.90
71807;BMP280;59655;42.590;23.364;2022-09-24T05:41:21;91879.56;;;6.94
71807;BMP280;59655;42.590;23.364;2022-09-24T05:43:47;91877.13;;;6.96
71807;BMP280;59655;42.590;23.364;2022-09-24T05:46:13;91868.72;;;6.98
71807;BMP280;59655;42.590;23.364;2022-09-24T05:48:39;91877.78;;;7.02
71807;BMP280;59655;42.590;23.364;2022-09-24T05:51:04;91875.59;;;7.06
71807;BMP280;59655;42.590;23.364;2022-09-24T05:53:31;91874.56;;;7.09
71807;BMP280;59655;42.590;23.364;2022-09-24T05:55:56;91875.00;;;7.14
71807;BMP280;59655;42.590;23.364;2022-09-24T05:58:22;91884.56;;;7.17
71807;BMP280;59655;42.590;23.364;2022-09-24T06:00:49;91884.22;;;7.26
71807;BMP280;59655;42.590;23.364;2022-09-24T06:03:16;91888.28;;;7.27
71807;BMP280;59655;42.590;23.364;2022-09-24T06:05:46;91893.75;;;7.29
71807;BMP280;59655;42.590;23.364;2022-09-24T06:08:13;91902.59;;;7.31
71807;BMP280;59655;42.590;23.364;2022-09-24T06:10:40;91893.41;;;7.38
71807;BMP280;59655;42.590;23.364;2022-09-24T06:13:07;91890.34;;;7.34
71807;BMP280;59655;42.590;23.364;2022-09-24T06:15:32;91899.41;;;7.39
71807;BMP280;59655;42.590;23.364;2022-09-24T06:17:59;91908.72;;;7.40
71807;BMP280;59655;42.590;23.364;2022-09-24T06:20:24;91900.13;;;7.39
71807;BMP280;59655;42.590;23.364;2022-09-24T06:22:49;91912.50;;;7.44
71807;BMP280;59655;42.590;23.364;2022-09-24T06:25:15;91902.44;;;7.43
71807;BMP280;59655;42.590;23.364;2022-09-24T06:27:40;91905.28;;;7.45
71807;BMP280;59655;42.590;23.364;2022-09-24T06:30:06;91911.53;;;7.47
71807;BMP280;59655;42.590;23.364;2022-09-24T06:32:32;91902.06;;;7.52
71807;BMP280;59655;42.590;23.364;2022-09-24T06:34:57;91907.56;;;7.54
71807;BMP280;59655;42.590;23.364;2022-09-24T06:37:22;91913.81;;;7.57
71807;BMP280;59655;42.590;23.364;2022-09-24T06:39:48;91912.47;;;7.63
71807;BMP280;59655;42.590;23.364;2022-09-24T06:42:13;91919.22;;;7.64
71807;BMP280;59655;42.590;23.364;2022-09-24T06:44:38;91920.63;;;7.65
71807;BMP280;59655;42.590;23.364;2022-09-24T06:47:04;91919.84;;;7.70
71807;BMP280;59655;42.590;23.364;2022-09-24T06:49:29;91924.84;;;7.74
71807;BMP280;59655;42.590;23.364;2022-09-24T06:51:56;91914.47;;;7.76
71807;BMP280;59655;42.590;23.364;2022-09-24T06:54:23;91917.03;;;7.82
71807;BMP280;59655;42.590;23.364;2022-09-24T06:56:48;91921.31;;;7.85
71807;BMP280;59655;42.590;23.364;2022-09-24T06:59:14;91924.16;;;7.87
71807;BMP280;59655;42.590;23.364;2022-09-24T07:01:39;91917.38;;;7.91
71807;BMP280;59655;42.590;23.364;2022-09-24T07:04:05;91921.72;;;7.89
71807;BMP280;59655;42.590;23.364;2022-09-24T07:06:30;91923.16;;;7.90
71807;BMP280;59655;42.590;23.364;2022-09-24T07:09:18;91926.22;;;7.94
71807;BMP280;59655;42.590;23.364;2022-09-24T07:11:43;91929.97;;;7.99
71807;BMP280;59655;42.590;23.364;2022-09-24T07:14:11;91941.69;;;8.03
71807;BMP280;59655;42.590;23.364;2022-09-24T07:16:37;91934.97;;;8.02
71807;BMP280;59655;42.590;23.364;2022-09-24T07:19:02;91935.19;;;8.04
71807;BMP280;59655;42.590;23.364;2022-09-24T07:21:28;91932.75;;;8.06
71807;BMP280;59655;42.590;23.364;2022-09-24T07:23:53;91926.97;;;8.08
71807;BMP280;59655;42.590;23.364;2022-09-24T07:26:18;91931.47;;;8.13
71807;BMP280;59655;42.590;23.364;2022-09-24T07:28:44;91924.94;;;8.14
71807;BMP280;59655;42.590;23.364;2022-09-24T07:31:09;91921.31;;;8.17
71807;BMP280;59655;42.590;23.364;2022-09-24T07:33:34;91919.28;;;8.23
71807;BMP280;59655;42.590;23.364;2022-09-24T07:36:04;91920.91;;;8.26
71807;BMP280;59655;42.590;23.364;2022-09-24T07:38:32;91929.78;;;8.29
71807;BMP280;59655;42.590;23.364;2022-09-24T07:41:00;91927.31;;;8.31
71807;BMP280;59655;42.590;23.364;2022-09-24T07:43:28;91925.38;;;8.31
71807;BMP280;59655;42.590;23.364;2022-09-24T07:45:53;91922.44;;;8.35
71807;BMP280;59655;42.590;23.364;2022-09-24T07:48:20;91926.94;;;8.40
71807;BMP280;59655;42.590;23.364;2022-09-24T07:50:46;91926.13;;;8.45
71807;BMP280;59655;42.590;23.364;2022-09-24T07:53:11;91928.03;;;8.45
71807;BMP280;59655;42.590;23.364;2022-09-24T07:55:37;91920.72;;;8.51
71807;BMP280;59655;42.590;23.364;2022-09-24T07:58:05;91933.44;;;8.52
71807;BMP280;59655;42.590;23.364;2022-09-24T08:00:31;91931.00;;;8.54
71807;BMP280;59655;42.590;23.364;2022-09-24T08:02:56;91929.28;;;8.57
71807;BMP280;59655;42.590;23.364;2022-09-24T08:05:22;91926.53;;;8.63
71807;BMP280;59655;42.590;23.364;2022-09-24T08:07:53;91930.81;;;8.66
71807;BMP280;59655;42.590;23.364;2022-09-24T08:10:18;91933.16;;;8.69
71807;BMP280;59655;42.590;23.364;2022-09-24T08:12:44;91925.31;;;8.77
71807;BMP280;59655;42.590;23.364;2022-09-24T08:15:09;91938.25;;;8.80
71807;BMP280;59655;42.590;23.364;2022-09-24T08:17:34;91926.97;;;8.80
71807;BMP280;59655;42.590;23.364;2022-09-24T08:20:00;91931.19;;;8.83
71807;BMP280;59655;42.590;23.364;2022-09-24T08:22:25;91934.06;;;8.85
71807;BMP280;59655;42.590;23.364;2022-09-24T08:24:51;91934.25;;;8.87
71807;BMP280;59655;42.590;23.364;2022-09-24T08:27:17;91931.31;;;8.91
71807;BMP280;59655;42.590;23.364;2022-09-24T08:29:45;91933.84;;;8.96
71807;BMP280;59655;42.590;23.364;2022-09-24T08:32:10;91930.69;;;8.98
71807;BMP280;59655;42.590;23.364;2022-09-24T08:34:37;91930.19;;;8.99
71807;BMP280;59655;42.590;23.364;2022-09-24T08:37:05;91938.13;;;8.99
71807;BMP280;59655;42.590;23.364;2022-09-24T08:39:31;91930.38;;;9.01
71807;BMP280;59655;42.590;23.364;2022-09-24T08:42:03;91936.09;;;9.06
71807;BMP280;59655;42.590;23.364;2022-09-24T08:44:44;91930.00;;;9.11
71807;BMP280;59655;42.590;23.364;2022-09-24T08:47:36;91933.84;;;9.10
71807;BMP280;59655;42.590;23.364;2022-09-24T08:50:15;91939.31;;;9.12
71807;BMP280;59655;42.590;23.364;2022-09-24T08:57:59;91935.88;;;9.17
71807;BMP280;59655;42.590;23.364;2022-09-24T09:00:27;91927.81;;;9.22
71807;BMP280;59655;42.590;23.364;2022-09-24T09:03:05;91933.09;;;9.22
71807;BMP280;59655;42.590;23.364;2022-09-24T09:05:53;91921.34;;;9.31
71807;BMP280;59655;42.590;23.364;2022-09-24T09:08:45;91921.06;;;9.35
71807;BMP280;59655;42.590;23.364;2022-09-24T09:11:15;91922.13;;;9.39
71807;BMP280;59655;42.590;23.364;2022-09-24T09:13:45;91918.28;;;9.40
71807;BMP280;59655;42.590;23.364;2022-09-24T09:18:48;91933.16;;;9.43
71807;BMP280;59655;42.590;23.364;2022-09-24T09:23:49;91922.13;;;9.53
71807;BMP280;59655;42.590;23.364;2022-09-24T09:26:15;91922.19;;;9.60
71807;BMP280;59655;42.590;23.364;2022-09-24T09:28:43;91923.13;;;9.63
71807;BMP280;59655;42.590;23.364;2022-09-24T09:42:35;91909.59;;;9.74
71807;BMP280;59655;42.590;23.364;2022-09-24T09:45:14;91915.22;;;9.71
71807;BMP280;59655;42.590;23.364;2022-09-24T09:47:45;91907.47;;;9.73
71807;BMP280;59655;42.590;23.364;2022-09-24T09:53:00;91897.47;;;9.79
71807;BMP280;59655;42.590;23.364;2022-09-24T09:55:29;91895.19;;;9.83
71807;BMP280;59655;42.590;23.364;2022-09-24T09:58:10;91900.06;;;9.92
71807;BMP280;59655;42.590;23.364;2022-09-24T10:00:35;91899.53;;;9.94
71807;BMP280;59655;42.590;23.364;2022-09-24T10:03:02;91905.59;;;10.02
71807;BMP280;59655;42.590;23.364;2022-09-24T10:05:29;91894.13;;;10.07
71807;BMP280;59655;42.590;23.364;2022-09-24T10:07:55;91891.91;;;10.11
71807;BMP280;59655;42.590;23.364;2022-09-24T10:10:28;91890.50;;;10.18
71807;BMP280;59655;42.590;23.364;2022-09-24T10:13:05;91887.34;;;10.19
71807;BMP280;59655;42.590;23.364;2022-09-24T10:15:32;91887.88;;;10.18
71807;BMP280;59655;42.590;23.364;2022-09-24T10:17:59;91887.72;;;10.23
71807;BMP280;59655;42.590;23.364;2022-09-24T10:20:30;91892.66;;;10.19
71807;BMP280;59655;42.590;23.364;2022-09-24T10:23:06;91884.16;;;10.21
71807;BMP280;59655;42.590;23.364;2022-09-24T10:25:38;91883.91;;;10.40
71807;BMP280;59655;42.590;23.364;2022-09-24T10:28:08;91874.38;;;10.37
71807;BMP280;59655;42.590;23.364;2022-09-24T10:31:16;91876.53;;;10.46
71807;BMP280;59655;42.590;23.364;2022-09-24T10:33:45;91873.03;;;10.51
71807;BMP280;59655;42.590;23.364;2022-09-24T10:36:28;91872.72;;;10.62
71807;BMP280;59655;42.590;23.364;2022-09-24T10:39:23;91877.53;;;10.71
71807;BMP280;59655;42.590;23.364;2022-09-24T10:41:54;91864.13;;;10.77
71807;BMP280;59655;42.590;23.364;2022-09-24T10:44:24;91868.97;;;10.86
71807;BMP280;59655;42.590;23.364;2022-09-24T10:52:53;91866.38;;;11.09
71807;BMP280;59655;42.590;23.364;2022-09-24T10:55:32;91864.97;;;11.16
71807;BMP280;59655;42.590;23.364;2022-09-24T11:00:38;91869.88;;;11.04
71807;BMP280;59655;42.590;23.364;2022-09-24T11:06:00;91873.47;;;11.30
71807;BMP280;59655;42.590;23.364;2022-09-24T11:09:06;91870.50;;;11.33
71807;BMP280;59655;42.590;23.364;2022-09-24T11:11:49;91874.41;;;11.32
71807;BMP280;59655;42.590;23.364;2022-09-24T11:23:00;91877.09;;;11.78
71807;BMP280;59655;42.590;23.364;2022-09-24T11:30:54;91859.53;;;11.91
71807;BMP280;59655;42.590;23.364;2022-09-24T11:36:32;91861.66;;;11.92
71807;BMP280;59655;42.590;23.364;2022-09-24T11:50:53;91855.09;;;12.16
71807;BMP280;59655;42.590;23.364;2022-09-24T11:56:34;91848.34;;;12.23
71807;BMP280;59655;42.590;23.364;2022-09-24T11:59:15;91847.59;;;12.30
71807;BMP280;59655;42.590;23.364;2022-09-24T12:01:48;91843.31;;;12.42
71807;BMP280;59655;42.590;23.364;2022-09-24T12:04:18;91837.06;;;12.47
71807;BMP280;59655;42.590;23.364;2022-09-24T12:06:50;91834.56;;;12.49
71807;BMP280;59655;42.590;23.364;2022-09-24T12:12:17;91829.13;;;12.80
71807;BMP280;59655;42.590;23.364;2022-09-24T12:17:20;91836.28;;;13.03
71807;BMP280;59655;42.590;23.364;2022-09-24T12:19:51;91834.47;;;13.13
71807;BMP280;59655;42.590;23.364;2022-09-24T12:22:19;91839.91;;;13.23
71807;BMP280;59655;42.590;23.364;2022-09-24T12:24:55;91828.75;;;13.42
71807;BMP280;59655;42.590;23.364;2022-09-24T12:27:32;91840.84;;;13.68
71807;BMP280;59655;42.590;23.364;2022-09-24T12:36:09;91827.63;;;14.47
71807;BMP280;59655;42.590;23.364;2022-09-24T12:38:52;91828.91;;;14.56
71807;BMP280;59655;42.590;23.364;2022-09-24T12:41:28;91836.31;;;14.65
71807;BMP280;59655;42.590;23.364;2022-09-24T12:44:06;91834.16;;;15.08
71807;BMP280;59655;42.590;23.364;2022-09-24T12:46:53;91837.59;;;15.74
71807;BMP280;59655;42.590;23.364;2022-09-24T12:51:55;91847.09;;;18.75
71807;BMP280;59655;42.590;23.364;2022-09-24T12:54:23;91843.97;;;20.61
71807;BMP280;59655;42.590;23.364;2022-09-24T12:59:51;91844.91;;;22.81
71807;BMP280;59655;42.590;23.364;2022-09-24T13:02:21;91831.97;;;23.60
71807;BMP280;59655;42.590;23.364;2022-09-24T13:07:36;91828.31;;;25.01
71807;BMP280;59655;42.590;23.364;2022-09-24T13:12:41;91822.47;;;26.16
71807;BMP280;59655;42.590;23.364;2022-09-24T13:15:39;91820.63;;;26.72
71807;BMP280;59655;42.590;23.364;2022-09-24T13:20:40;91840.41;;;27.53
71807;BMP280;59655;42.590;23.364;2022-09-24T13:23:29;91835.75;;;27.88
71807;BMP280;59655;42.590;23.364;2022-09-24T13:26:26;91829.44;;;28.09
71807;BMP280;59655;42.590;23.364;2022-09-24T13:31:47;91821.72;;;28.68
71807;BMP280;59655;42.590;23.364;2022-09-24T13:34:19;91821.06;;;28.69
71807;BMP280;59655;42.590;23.364;2022-09-24T13:37:10;91821.50;;;28.92
71807;BMP280;59655;42.590;23.364;2022-09-24T13:39:44;91818.31;;;28.01
71807;BMP280;59655;42.590;23.364;2022-09-24T13:44:45;91812.16;;;27.40
71807;BMP280;59655;42.590;23.364;2022-09-24T13:47:27;91799.00;;;27.05
71807;BMP280;59655;42.590;23.364;2022-09-24T13:52:52;91798.53;;;24.83
71807;BMP280;59655;42.590;23.364;2022-09-24T13:55:20;91800.78;;;23.95
71807;BMP280;59655;42.590;23.364;2022-09-24T13:57:47;91796.59;;;23.23
71807;BMP280;59655;42.590;23.364;2022-09-24T14:00:19;91803.13;;;22.68
71807;BMP280;59655;42.590;23.364;2022-09-24T14:03:38;91792.31;;;22.22
71807;BMP280;59655;42.590;23.364;2022-09-24T14:05:58;91789.53;;;21.91
71807;BMP280;59655;42.590;23.364;2022-09-24T14:08:24;91793.63;;;21.62
71807;BMP280;59655;42.590;23.364;2022-09-24T14:10:51;91797.19;;;21.23
71807;BMP280;59655;42.590;23.364;2022-09-24T14:13:27;91794.16;;;21.03
71807;BMP280;59655;42.590;23.364;2022-09-24T14:18:18;91788.34;;;20.42
71807;BMP280;59655;42.590;23.364;2022-09-24T14:20:47;91780.22;;;20.15
71807;BMP280;59655;42.590;23.364;2022-09-24T14:23:20;91779.94;;;19.97
71807;BMP280;59655;42.590;23.364;2022-09-24T14:25:47;91784.31;;;19.78
71807;BMP280;59655;42.590;23.364;2022-09-24T14:28:14;91784.59;;;19.59
71807;BMP280;59655;42.590;23.364;2022-09-24T14:30:52;91790.03;;;19.35
71807;BMP280;59655;42.590;23.364;2022-09-24T14:33:19;91777.09;;;19.20
71807;BMP280;59655;42.590;23.364;2022-09-24T14:35:50;91783.88;;;18.98
71807;BMP280;59655;42.590;23.364;2022-09-24T14:38:21;91778.94;;;18.82
71807;BMP280;59655;42.590;23.364;2022-09-24T14:43:43;91780.44;;;18.50
71807;BMP280;59655;42.590;23.364;2022-09-24T14:48:43;91785.75;;;18.27
71807;BMP280;59655;42.590;23.364;2022-09-24T14:51:49;91784.19;;;18.12
71807;BMP280;59655;42.590;23.364;2022-09-24T14:54:39;91786.97;;;18.02
71807;BMP280;59655;42.590;23.364;2022-09-24T14:59:36;91791.44;;;17.66
71807;BMP280;59655;42.590;23.364;2022-09-24T15:02:18;91790.97;;;17.58
71807;BMP280;59655;42.590;23.364;2022-09-24T15:04:46;91800.84;;;17.56
71807;BMP280;59655;42.590;23.364;2022-09-24T15:07:16;91798.41;;;17.60
71807;BMP280;59655;42.590;23.364;2022-09-24T15:09:42;91791.44;;;17.45
71807;BMP280;59655;42.590;23.364;2022-09-24T15:12:25;91798.03;;;17.54
71807;BMP280;59655;42.590;23.364;2022-09-24T15:17:46;91800.03;;;17.53
71807;BMP280;59655;42.590;23.364;2022-09-24T15:20:11;91795.78;;;17.50
71807;BMP280;59655;42.590;23.364;2022-09-24T15:22:37;91795.19;;;17.30
71807;BMP280;59655;42.590;23.364;2022-09-24T15:25:03;91797.97;;;17.11
71807;BMP280;59655;42.590;23.364;2022-09-24T15:27:30;91792.38;;;16.97
71807;BMP280;59655;42.590;23.364;2022-09-24T15:29:58;91788.88;;;16.85
71807;BMP280;59655;42.590;23.364;2022-09-24T15:32:29;91799.22;;;16.69
71807;BMP280;59655;42.590;23.364;2022-09-24T15:35:02;91802.38;;;16.55
71807;BMP280;59655;42.590;23.364;2022-09-24T15:37:32;91802.38;;;16.46
71807;BMP280;59655;42.590;23.364;2022-09-24T15:40:05;91806.06;;;16.31
71807;BMP280;59655;42.590;23.364;2022-09-24T15:42:30;91809.03;;;16.16
71807;BMP280;59655;42.590;23.364;2022-09-24T15:44:56;91818.34;;;16.05
71807;BMP280;59655;42.590;23.364;2022-09-24T15:47:22;91807.06;;;15.87
71807;BMP280;59655;42.590;23.364;2022-09-24T15:49:48;91810.44;;;15.78
71807;BMP280;59655;42.590;23.364;2022-09-24T15:52:25;91807.56;;;15.56
71807;BMP280;59655;42.590;23.364;2022-09-24T15:54:53;91809.63;;;15.38
71807;BMP280;59655;42.590;23.364;2022-09-24T15:57:19;91811.47;;;15.36
71807;BMP280;59655;42.590;23.364;2022-09-24T15:59:45;91811.84;;;15.23
71807;BMP280;59655;42.590;23.364;2022-09-24T16:02:16;91804.38;;;15.21
71807;BMP280;59655;42.590;23.364;2022-09-24T16:04:42;91813.19;;;15.04
71807;BMP280;59655;42.590;23.364;2022-09-24T16:07:08;91813.97;;;14.97
71807;BMP280;59655;42.590;23.364;2022-09-24T16:09:33;91819.81;;;14.86
71807;BMP280;59655;42.590;23.364;2022-09-24T16:11:59;91818.09;;;14.81
71807;BMP280;59655;42.590;23.364;2022-09-24T16:14:25;91818.00;;;14.61
71807;BMP280;59655;42.590;23.364;2022-09-24T16:16:51;91819.81;;;14.59
71807;BMP280;59655;42.590;23.364;2022-09-24T16:19:16;91813.31;;;14.52
71807;BMP280;59655;42.590;23.364;2022-09-24T16:21:41;91824.34;;;14.39
71807;BMP280;59655;42.590;23.364;2022-09-24T16:24:07;91813.72;;;14.31
71807;BMP280;59655;42.590;23.364;2022-09-24T16:26:32;91821.44;;;14.27
71807;BMP280;59655;42.590;23.364;2022-09-24T16:29:01;91823.47;;;14.19